Terminal Aerodrome Forecast
Issued by NWS

Home | Current Version | Previous Version | Text Only | Print | Product List | Glossary On
Versions: 1 2 3 4 5 6 7 8 9 10 11 12 13 14 15 16 17 18 19 20 21 22 23 24 25 26 27 28 29 30 31 32 33 34 35 36 37 38 39 40 41
000
FTUS46 KOTX 291739
TAFCOE
TAF
KCOE 291739Z 2918/3018 17008KT P6SM FEW035 SCT200
     FM292200 21008G13KT P6SM BKN120 OVC200
     FM300200 18005KT P6SM OVC070
     FM300600 19010KT P6SM VCSH SCT040 OVC060
     FM301100 20010KT P6SM -RA BKN025 OVC060
     FM301700 23012KT P6SM SCT020 BKN050=

USA.gov is the U.S. government's official web portal to all federal, state and local government web resources and services.